createdAt,value
2023-02-02T00:02:24.575Z,89.4
2023-02-02T00:17:34.280Z,89.3
2023-02-02T00:32:43.722Z,89.3
2023-02-02T00:47:53.017Z,89.1
2023-02-02T01:03:02.445Z,89.2
2023-02-02T01:18:11.767Z,89.1
2023-02-02T01:33:21.305Z,89.3
2023-02-02T01:48:30.836Z,89
2023-02-02T02:03:40.057Z,88.9
2023-02-02T02:18:51.240Z,88.6
2023-02-02T02:34:00.531Z,88.6
2023-02-02T02:49:09.770Z,88.7
2023-02-02T03:04:19.173Z,88.7
2023-02-02T03:19:28.689Z,88.7
2023-02-02T03:34:37.663Z,88.7
2023-02-02T03:49:46.747Z,88.7
2023-02-02T04:04:56.088Z,88.5
2023-02-02T04:20:04.665Z,88.4
2023-02-02T04:35:14.340Z,88.2
2023-02-02T04:50:27.758Z,88.4
2023-02-02T05:05:37.075Z,88.6
2023-02-02T05:20:45.922Z,88.7
2023-02-02T05:35:55.142Z,88.8
2023-02-02T05:51:04.743Z,88.7
2023-02-02T06:06:14.860Z,88.7
2023-02-02T06:21:24.277Z,88.6
2023-02-02T06:36:33.939Z,88.5
2023-02-02T06:51:43.430Z,88.5
2023-02-02T07:06:54.079Z,88.4
2023-02-02T07:22:03.634Z,88.3
2023-02-02T07:37:13.172Z,88.4
2023-02-02T07:52:23.340Z,88.4
2023-02-02T08:07:32.765Z,88.3
2023-02-02T08:22:42.167Z,88.3
2023-02-02T08:37:51.999Z,88.2
2023-02-02T08:53:01.761Z,88.2
2023-02-02T09:08:12.389Z,88
2023-02-02T09:23:21.834Z,87.8
2023-02-02T09:38:32.153Z,87.8
2023-02-02T09:53:56.561Z,87.6
2023-02-02T10:09:06.663Z,87.4
2023-02-02T10:24:15.787Z,87.5
2023-02-02T10:39:25.909Z,87.3
2023-02-02T10:55:03.627Z,87.2
2023-02-02T11:10:14.061Z,87.1
2023-02-02T11:25:23.665Z,87
2023-02-02T11:40:33.497Z,87
2023-02-02T11:55:43.185Z,87
2023-02-02T12:10:56.435Z,86.8
2023-02-02T12:26:05.860Z,86.9
2023-02-02T12:41:15.286Z,86.8
2023-02-02T12:56:24.690Z,86.7
2023-02-02T13:11:34.486Z,86.6
2023-02-02T13:26:44.779Z,86.6
2023-02-02T13:41:56.453Z,84.9
2023-02-02T13:57:06.343Z,83.2
2023-02-02T14:12:15.176Z,84.4
2023-02-02T14:27:25.390Z,85.6
2023-02-02T14:42:34.769Z,86.3
2023-02-02T14:57:46.032Z,86.7
2023-02-02T15:12:55.953Z,86.9
2023-02-02T15:28:04.988Z,87.2
2023-02-02T15:43:59.158Z,86.2
2023-02-02T15:59:09.640Z,87.5
2023-02-02T16:14:19.272Z,87.6
2023-02-02T16:29:28.603Z,87.7
2023-02-02T16:44:38.136Z,87.9
2023-02-02T16:59:48.068Z,88.2
2023-02-02T17:14:57.410Z,88.4
2023-02-02T17:30:06.446Z,88.4
2023-02-02T17:45:16.347Z,88.4
2023-02-02T18:00:31.200Z,88.3
2023-02-02T18:15:41.122Z,88.4
2023-02-02T18:30:51.539Z,88.4
2023-02-02T18:46:02.109Z,88.5
2023-02-02T19:01:11.427Z,88.6
2023-02-02T19:16:21.013Z,88.4
2023-02-02T19:31:31.493Z,88.5
2023-02-02T19:46:40.943Z,88.2
2023-02-02T20:01:51.343Z,88
2023-02-02T20:16:59.980Z,88.1
2023-02-02T20:32:09.723Z,88.2
2023-02-02T20:47:19.254Z,88.3
2023-02-02T21:02:29.953Z,88.6
2023-02-02T21:17:39.803Z,88.7
2023-02-02T21:32:49.706Z,88.8
2023-02-02T21:47:58.846Z,88.8
2023-02-02T22:03:08.560Z,88.8
2023-02-02T22:18:18.389Z,88.5
2023-02-02T22:33:28.358Z,88
2023-02-02T22:48:38.059Z,88.1
2023-02-02T23:03:48.425Z,88.3
2023-02-02T23:18:58.888Z,88.5
2023-02-02T23:34:08.971Z,88.7
2023-02-02T23:49:19.219Z,89
